Time;durP1;ratioP1;P1;durP2;ratioP2;P2;SDS_P1;SDS_P2;PMS_P1;PMS_P2;Temp;Humidity;BMP_temperature;BMP_pressure;BME280_temperature;BME280_humidity;BME280_pressure;Samples;Min_cycle;Max_cycle;Signal;HPM_P1;HPM_P2
2023/09/25 00:00:55;;;;;;;1.50;0.90;;;;;;;22.73;68.30;98962.76;104957;1266;64974;-31
2023/09/25 00:03:22;;;;;;;1.30;1.00;;;;;;;22.72;68.38;98957.66;105290;1260;72357;-31
2023/09/25 00:05:50;;;;;;;2.40;0.70;;;;;;;22.72;68.25;98954.77;105219;1262;61248;-31
2023/09/25 00:08:17;;;;;;;2.40;1.10;;;;;;;22.72;68.46;98957.98;105255;1260;61250;-31
2023/09/25 00:10:44;;;;;;;1.10;0.90;;;;;;;22.73;68.50;98952.29;105345;1260;74301;-31
2023/09/25 00:13:11;;;;;;;2.00;1.00;;;;;;;22.72;68.43;98949.09;105182;1262;65828;-31
2023/09/25 00:15:43;;;;;;;0.80;0.80;;;;;;;22.72;68.42;98946.36;108937;1258;72396;-32
2023/09/25 00:18:11;;;;;;;1.00;0.90;;;;;;;22.72;68.64;98946.20;108967;1259;58959;-32
2023/09/25 00:20:38;;;;;;;1.60;1.10;;;;;;;22.72;68.42;98946.97;108996;1258;59746;-32
2023/09/25 00:23:06;;;;;;;1.20;0.90;;;;;;;22.72;68.40;98943.68;109010;1258;74556;-32
2023/09/25 00:25:33;;;;;;;1.10;1.00;;;;;;;22.73;68.27;98945.42;109012;1260;66300;-32
2023/09/25 00:28:01;;;;;;;1.00;0.90;;;;;;;22.74;68.35;98945.07;108328;1260;71435;-32
2023/09/25 00:30:28;;;;;;;1.20;0.90;;;;;;;22.74;68.32;98942.09;105205;1262;61168;-31
2023/09/25 00:32:56;;;;;;;2.20;0.90;;;;;;;22.75;68.38;98945.86;105199;1258;61376;-31
2023/09/25 00:35:24;;;;;;;1.40;0.90;;;;;;;22.75;68.19;98949.79;105347;1260;74331;-31
2023/09/25 00:37:51;;;;;;;0.90;0.70;;;;;;;22.75;68.17;98949.63;105219;1260;65342;-31
2023/09/25 00:40:19;;;;;;;1.70;0.90;;;;;;;22.75;68.16;98946.58;105277;1260;72650;-33
2023/09/25 00:42:49;;;;;;;1.80;0.80;;;;;;;22.75;68.12;98948.45;105132;1262;61266;-31
2023/09/25 00:45:16;;;;;;;0.80;0.70;;;;;;;22.75;68.40;98948.45;105179;1262;61176;-31
2023/09/25 00:47:44;;;;;;;1.00;0.70;;;;;;;22.75;68.15;98951.17;105365;1260;74304;-31
2023/09/25 00:50:11;;;;;;;1.10;0.90;;;;;;;22.75;68.06;98950.09;105170;1265;65050;-31
2023/09/25 00:52:41;;;;;;;1.00;0.90;;;;;;;22.74;68.21;98945.16;105368;1260;72615;-31
2023/09/25 00:55:10;;;;;;;2.20;1.00;;;;;;;22.74;68.17;98946.64;105311;1262;61359;-32
2023/09/25 00:57:38;;;;;;;1.10;0.90;;;;;;;22.73;68.19;98942.16;105369;1259;61237;-32
2023/09/25 01:00:11;;;;;;;1.60;0.90;;;;;;;22.74;68.37;98943.73;105197;1260;73233;-32
2023/09/25 01:02:39;;;;;;;4.20;1.00;;;;;;;22.72;68.23;98944.55;105252;1262;66629;-32
2023/09/25 01:05:10;;;;;;;1.20;1.00;;;;;;;22.72;68.24;98943.85;105280;1258;72402;-32
2023/09/25 01:07:38;;;;;;;1.20;1.00;;;;;;;22.72;68.23;98939.93;105070;1262;61237;-31
2023/09/25 01:10:14;;;;;;;1.40;0.90;;;;;;;22.72;68.41;98937.52;105195;1260;61440;-32
2023/09/25 01:12:42;;;;;;;1.40;0.90;;;;;;;22.71;68.20;98939.45;105334;1260;73217;-32
2023/09/25 01:15:10;;;;;;;1.50;1.10;;;;;;;22.72;68.18;98943.83;105279;1262;64898;-32
2023/09/25 01:17:37;;;;;;;2.70;1.00;;;;;;;22.71;68.27;98946.86;105459;1262;72243;-32
2023/09/25 01:20:15;;;;;;;1.10;0.90;;;;;;;22.71;68.25;98946.92;105231;1265;61261;-32
2023/09/25 01:22:51;;;;;;;3.00;1.10;;;;;;;22.71;68.19;98945.84;105228;1260;61950;-32
2023/09/25 01:25:19;;;;;;;1.10;1.00;;;;;;;22.71;68.22;98945.45;105311;1260;74616;-32
2023/09/25 01:27:47;;;;;;;2.60;1.50;;;;;;;22.71;68.39;98944.19;105274;1260;66300;-32
2023/09/25 01:30:16;;;;;;;3.10;1.20;;;;;;;22.71;68.08;98943.95;105299;1263;72449;-32
2023/09/25 01:32:44;;;;;;;3.30;1.00;;;;;;;22.70;68.05;98940.81;105276;1260;61370;-32
2023/09/25 01:35:16;;;;;;;1.50;1.00;;;;;;;22.70;68.26;98938.78;105207;1260;61901;-32
2023/09/25 01:37:45;;;;;;;1.50;1.40;;;;;;;22.70;68.33;98937.70;105276;1260;73456;-32
2023/09/25 01:40:13;;;;;;;1.40;1.20;;;;;;;22.69;68.23;98936.19;105295;1262;66134;-32
2023/09/25 01:42:40;;;;;;;2.10;1.40;;;;;;;22.70;68.25;98934.48;105117;1260;72655;-32
2023/09/25 01:45:10;;;;;;;2.50;1.70;;;;;;;22.69;68.21;98932.27;105372;1262;61286;-32
2023/09/25 01:47:37;;;;;;;2.30;1.40;;;;;;;22.69;68.19;98930.64;105190;1262;61135;-32
2023/09/25 01:50:08;;;;;;;2.20;1.50;;;;;;;22.69;68.20;98932.20;105257;1262;74735;-32
2023/09/25 01:52:36;;;;;;;2.80;1.70;;;;;;;22.69;67.96;98935.16;105081;1262;64879;-32
2023/09/25 01:55:04;;;;;;;3.10;1.60;;;;;;;22.68;68.11;98933.65;105172;1260;72605;-32
2023/09/25 01:57:32;;;;;;;3.50;2.00;;;;;;;22.69;68.20;98936.41;105173;1262;61305;-33
2023/09/25 01:59:59;;;;;;;2.30;1.60;;;;;;;22.69;68.20;98941.55;105186;1260;61348;-31
2023/09/25 02:02:27;;;;;;;2.80;2.00;;;;;;;22.68;68.04;98939.68;105159;1260;74584;-31
2023/09/25 02:04:54;;;;;;;2.60;2.00;;;;;;;22.68;68.08;98939.35;105204;1262;67335;-31
2023/09/25 02:07:22;;;;;;;3.10;2.00;;;;;;;22.68;68.11;98940.44;105220;1260;72402;-31
2023/09/25 02:09:50;;;;;;;3.40;2.20;;;;;;;22.68;68.02;98942.30;105300;1262;61266;-31
2023/09/25 02:12:18;;;;;;;2.20;2.00;;;;;;;22.68;68.34;98943.48;105324;1260;61317;-31
2023/09/25 02:14:45;;;;;;;3.30;2.10;;;;;;;22.68;67.96;98946.21;105389;1260;74335;-31
2023/09/25 02:17:14;;;;;;;3.60;2.00;;;;;;;22.68;68.20;98946.16;105264;1262;66164;-32
2023/09/25 02:19:43;;;;;;;4.30;2.00;;;;;;;22.67;68.05;98943.93;105253;1260;72326;-32
2023/09/25 02:22:10;;;;;;;3.50;2.50;;;;;;;22.67;68.24;98941.35;105292;1261;61384;-32
2023/09/25 02:24:39;;;;;;;3.50;2.50;;;;;;;22.67;68.00;98945.96;105204;1264;61144;-32
2023/09/25 02:27:06;;;;;;;3.60;2.50;;;;;;;22.67;68.05;98946.66;105258;1259;74590;-31
2023/09/25 02:29:34;;;;;;;4.80;2.80;;;;;;;22.67;68.17;98955.47;105230;1262;66454;-32
2023/09/25 02:32:02;;;;;;;3.00;2.30;;;;;;;22.66;67.98;98961.45;105267;1262;72283;-32
2023/09/25 02:34:29;;;;;;;4.80;2.50;;;;;;;22.66;68.12;98963.95;105254;1262;61179;-31
2023/09/25 02:36:56;;;;;;;3.50;2.40;;;;;;;22.66;68.12;98963.80;105186;1262;61211;-32
2023/09/25 02:39:25;;;;;;;4.70;2.60;;;;;;;22.66;68.05;98964.18;105287;1264;75558;-32
2023/09/25 02:41:53;;;;;;;4.50;2.70;;;;;;;22.67;67.99;98964.66;105328;1262;67200;-32
2023/09/25 02:44:20;;;;;;;3.90;2.70;;;;;;;22.66;67.99;98964.73;105268;1263;72683;-32
2023/09/25 02:46:48;;;;;;;4.80;2.80;;;;;;;22.66;68.24;98968.94;105330;1261;61173;-32
2023/09/25 02:49:15;;;;;;;3.50;2.70;;;;;;;22.67;68.05;98976.38;105315;1260;61278;-32
2023/09/25 02:51:42;;;;;;;6.30;3.00;;;;;;;22.66;68.09;98979.31;105216;1260;74605;-33
2023/09/25 02:54:09;;;;;;;7.00;3.10;;;;;;;22.66;68.16;98979.48;105185;1265;65848;-32
2023/09/25 02:56:37;;;;;;;4.70;3.00;;;;;;;22.66;68.05;98982.36;105075;1263;72571;-32
2023/09/25 02:59:04;;;;;;;5.30;3.50;;;;;;;22.66;68.15;98980.25;105312;1262;61238;-32
2023/09/25 03:01:32;;;;;;;5.00;3.20;;;;;;;22.66;68.20;98979.07;105189;1270;61232;-32
2023/09/25 03:04:00;;;;;;;8.30;3.20;;;;;;;22.66;68.06;98983.21;105221;1262;74511;-31
2023/09/25 03:06:27;;;;;;;4.50;3.30;;;;;;;22.65;68.23;98982.20;105166;1265;66185;-31
2023/09/25 03:08:55;;;;;;;6.20;3.70;;;;;;;22.65;68.02;98982.73;105147;1260;72752;-31
2023/09/25 03:11:22;;;;;;;4.80;3.30;;;;;;;22.65;68.07;98986.64;105228;1262;61346;-31
2023/09/25 03:13:50;;;;;;;4.40;3.40;;;;;;;22.66;68.23;98986.41;105333;1259;61256;-31
2023/09/25 03:16:17;;;;;;;4.30;3.10;;;;;;;22.65;68.06;98983.02;105079;1264;74656;-31
2023/09/25 03:18:45;;;;;;;5.50;3.30;;;;;;;22.65;68.12;98986.48;105338;1262;66208;-31
2023/09/25 03:21:13;;;;;;;4.70;3.10;;;;;;;22.65;68.11;98988.79;105197;1262;72502;-31
2023/09/25 03:23:41;;;;;;;5.20;3.60;;;;;;;22.64;68.05;98998.61;105301;1260;61342;-31
2023/09/25 03:26:18;;;;;;;4.80;3.20;;;;;;;22.64;68.01;99000.80;105144;1262;61163;-31
2023/09/25 03:28:46;;;;;;;6.30;3.50;;;;;;;22.65;68.27;98996.36;105246;1263;73316;-31
2023/09/25 03:31:15;;;;;;;5.00;3.70;;;;;;;22.65;67.98;99002.74;105096;1260;65962;-31
2023/09/25 03:33:44;;;;;;;5.30;3.60;;;;;;;22.65;68.15;99007.07;105196;1263;72360;-32
2023/09/25 03:36:12;;;;;;;5.30;3.90;;;;;;;22.65;68.02;99012.75;105182;1265;61311;-32
2023/09/25 03:38:39;;;;;;;6.40;3.90;;;;;;;22.64;68.20;99015.29;105125;1260;61339;-32
2023/09/25 03:41:07;;;;;;;4.40;3.80;;;;;;;22.64;68.03;99019.13;105291;1269;74499;-32
2023/09/25 03:43:34;;;;;;;7.40;3.80;;;;;;;22.63;68.37;99016.69;105319;1262;66370;-33
2023/09/25 03:46:02;;;;;;;5.40;3.70;;;;;;;22.63;68.08;99017.79;105192;1262;72596;-32
2023/09/25 03:48:30;;;;;;;5.50;3.90;;;;;;;22.64;68.12;99017.31;105172;1266;61243;-32
2023/09/25 03:50:58;;;;;;;7.10;4.20;;;;;;;22.64;68.17;99015.14;105204;1263;61337;-32
2023/09/25 03:53:26;;;;;;;7.40;3.80;;;;;;;22.63;68.22;99016.85;105333;1261;75069;-32
2023/09/25 03:55:54;;;;;;;4.10;3.60;;;;;;;22.64;68.16;99024.42;105400;1262;65850;-32
2023/09/25 03:58:21;;;;;;;7.10;4.10;;;;;;;22.63;68.29;99027.45;105262;1258;72526;-32
2023/09/25 04:00:52;;;;;;;6.00;4.00;;;;;;;22.63;68.17;99031.66;105278;1262;61250;-32
2023/09/25 04:03:19;;;;;;;7.50;3.90;;;;;;;22.63;68.11;99028.78;105583;1258;61297;-30
2023/09/25 04:05:47;;;;;;;7.00;4.10;;;;;;;22.64;68.27;99030.81;105150;1262;74327;-32
2023/09/25 04:08:14;;;;;;;6.60;4.00;;;;;;;22.64;68.22;99029.73;105276;1263;66086;-32
2023/09/25 04:10:43;;;;;;;6.10;4.20;;;;;;;22.64;68.17;99034.51;105086;1261;72597;-32
2023/09/25 04:13:11;;;;;;;4.70;3.80;;;;;;;22.63;68.10;99032.91;105791;1261;61286;-32
2023/09/25 04:15:38;;;;;;;9.60;4.30;;;;;;;22.64;68.11;99036.19;105505;1263;61272;-32
2023/09/25 04:18:06;;;;;;;4.90;3.90;;;;;;;22.63;68.16;99036.17;105397;1262;74604;-32
2023/09/25 04:20:34;;;;;;;5.90;4.40;;;;;;;22.63;68.20;99035.33;106118;1262;65801;-32
2023/09/25 04:23:01;;;;;;;6.10;4.20;;;;;;;22.63;68.15;99039.55;105102;1258;72345;-32
2023/09/25 04:25:29;;;;;;;5.50;4.30;;;;;;;22.63;68.30;99036.64;105156;1263;61265;-31
2023/09/25 04:27:57;;;;;;;6.60;4.30;;;;;;;22.62;68.30;99036.78;105325;1262;61282;-32
2023/09/25 04:30:24;;;;;;;4.90;4.20;;;;;;;22.63;68.15;99039.00;105144;1263;74654;-31
2023/09/25 04:32:55;;;;;;;4.80;4.00;;;;;;;22.63;68.18;99039.23;105245;1262;66195;-33
2023/09/25 04:35:23;;;;;;;5.40;4.00;;;;;;;22.63;68.15;99037.73;105114;1263;72604;-31
2023/09/25 04:37:51;;;;;;;6.40;4.00;;;;;;;22.62;68.11;99034.66;105466;1261;61240;-31
2023/09/25 04:42:52;;;;;;;6.50;4.70;;;;;;;22.63;68.08;99038.02;105242;1263;75043;-31
2023/09/25 04:45:19;;;;;;;7.80;4.30;;;;;;;22.63;68.09;99037.96;105235;1260;66213;-32
2023/09/25 04:47:47;;;;;;;6.00;4.60;;;;;;;22.63;68.00;99036.48;105194;1260;72631;-32
2023/09/25 04:50:15;;;;;;;6.20;4.20;;;;;;;22.63;68.10;99036.88;105389;1258;61317;-32
2023/09/25 04:52:45;;;;;;;5.40;4.30;;;;;;;22.61;68.07;99036.28;105156;1262;61330;-32
2023/09/25 04:55:13;;;;;;;6.80;4.70;;;;;;;22.62;68.20;99041.54;104972;1258;74629;-32
2023/09/25 04:57:42;;;;;;;6.00;4.40;;;;;;;22.62;68.41;99047.14;108125;1262;66372;-32
2023/09/25 05:00:15;;;;;;;8.00;4.50;;;;;;;22.62;68.32;99048.32;105268;1262;72688;-32
2023/09/25 05:02:46;;;;;;;7.10;4.40;;;;;;;22.62;68.29;99051.27;105275;1262;61240;-31
2023/09/25 05:05:15;;;;;;;7.00;4.30;;;;;;;22.62;68.30;99050.89;105568;1260;61355;-32
2023/09/25 05:07:43;;;;;;;4.90;4.30;;;;;;;22.62;68.17;99053.01;105506;1261;74370;-34
2023/09/25 05:10:11;;;;;;;6.10;4.10;;;;;;;22.62;68.18;99055.48;105140;1262;66253;-34
2023/09/25 05:12:39;;;;;;;5.80;4.10;;;;;;;22.63;68.41;99058.40;105267;1260;72467;-34
2023/09/25 05:15:07;;;;;;;6.90;4.20;;;;;;;22.63;68.38;99060.59;105106;1264;61225;-33
2023/09/25 05:17:36;;;;;;;5.90;4.30;;;;;;;22.63;68.45;99061.15;104983;1262;61408;-31
2023/09/25 05:20:11;;;;;;;9.30;4.70;;;;;;;22.64;68.25;99067.40;105375;1262;73179;-34
2023/09/25 05:22:39;;;;;;;4.80;4.10;;;;;;;22.64;68.37;99067.88;105302;1263;66035;-34
2023/09/25 05:25:08;;;;;;;5.30;4.20;;;;;;;22.65;68.48;99064.86;105085;1261;72581;-34
2023/09/25 05:27:36;;;;;;;6.10;4.10;;;;;;;22.64;68.59;99066.72;105343;1263;61375;-33
2023/09/25 05:30:05;;;;;;;9.10;5.00;;;;;;;22.65;68.91;99068.06;105270;1262;61362;-34
2023/09/25 05:32:33;;;;;;;6.70;4.40;;;;;;;22.65;69.10;99068.32;105269;1271;74585;-36
2023/09/25 05:35:02;;;;;;;8.50;4.40;;;;;;;22.65;69.05;99065.59;105259;1262;67255;-34
2023/09/25 05:37:30;;;;;;;8.40;4.30;;;;;;;22.66;68.74;99064.98;105220;1262;73702;-32
2023/09/25 05:39:58;;;;;;;9.80;4.50;;;;;;;22.67;68.78;99062.51;105069;1270;61238;-31
2023/09/25 05:42:25;;;;;;;6.70;4.60;;;;;;;22.67;68.75;99062.98;105084;1263;61240;-33
2023/09/25 05:44:52;;;;;;;7.10;4.60;;;;;;;22.68;68.90;99064.64;105144;1258;74654;-32
2023/09/25 05:47:20;;;;;;;6.40;4.20;;;;;;;22.68;68.88;99068.70;105081;1262;66268;-32
2023/09/25 05:49:47;;;;;;;7.70;5.00;;;;;;;22.69;69.17;99070.37;105546;1262;73607;-32
2023/09/25 05:52:14;;;;;;;6.80;4.30;;;;;;;22.69;69.64;99075.39;105429;1260;61269;-32
2023/09/25 05:54:42;;;;;;;10.20;4.30;;;;;;;22.70;70.36;99079.39;104862;1262;61250;-32
2023/09/25 05:57:10;;;;;;;8.00;4.00;;;;;;;22.71;70.47;99077.77;105238;1262;74568;-32
2023/09/25 05:59:37;;;;;;;7.90;4.90;;;;;;;22.73;70.58;99076.82;104952;1271;66603;-32
2023/09/25 06:02:05;;;;;;;9.10;5.20;;;;;;;22.75;70.97;99079.47;105121;1257;72837;-32
2023/09/25 06:04:38;;;;;;;7.60;4.90;;;;;;;22.79;70.88;99083.31;104799;1262;61292;-33
2023/09/25 06:07:06;;;;;;;10.80;5.30;;;;;;;22.82;70.96;99081.63;104709;1257;61260;-32
2023/09/25 06:09:33;;;;;;;9.70;4.80;;;;;;;22.83;71.07;99083.47;104705;1257;74991;-34
2023/09/25 06:12:01;;;;;;;10.90;5.90;;;;;;;22.84;71.39;99082.47;104842;1270;65618;-34
2023/09/25 06:14:29;;;;;;;10.10;6.00;;;;;;;22.84;71.59;99086.35;104816;1262;74633;-33
2023/09/25 06:16:59;;;;;;;9.30;5.60;;;;;;;22.82;71.90;99084.59;104791;1263;62370;-33
2023/09/25 06:19:26;;;;;;;11.80;5.60;;;;;;;22.82;71.89;99093.71;105432;1261;61809;-33
2023/09/25 06:21:54;;;;;;;12.20;5.70;;;;;;;22.81;71.96;99092.20;105250;1261;74465;-33
2023/09/25 06:24:21;;;;;;;9.50;6.10;;;;;;;22.80;71.94;99097.25;105136;1263;66165;-35
2023/09/25 06:26:49;;;;;;;15.10;5.40;;;;;;;22.80;72.03;99096.70;104764;1262;72823;-32
2023/09/25 06:29:17;;;;;;;9.40;5.40;;;;;;;22.79;72.12;99102.38;105237;1263;61769;-33
2023/09/25 06:31:44;;;;;;;7.90;4.90;;;;;;;22.79;72.12;99106.11;105171;1260;61135;-34
2023/09/25 06:34:26;;;;;;;7.80;4.60;;;;;;;22.80;71.98;99107.61;104945;1263;75506;-35
2023/09/25 06:36:53;;;;;;;9.60;5.20;;;;;;;22.81;72.06;99107.73;105086;1262;65322;-33
2023/09/25 06:39:23;;;;;;;8.00;4.60;;;;;;;22.84;71.99;99105.31;104955;1261;72686;-34
2023/09/25 06:41:50;;;;;;;10.00;5.50;;;;;;;22.87;72.10;99107.13;104980;1263;62010;-33
2023/09/25 06:44:21;;;;;;;11.20;5.30;;;;;;;22.90;71.98;99108.95;105274;1260;61391;-35
2023/09/25 06:46:49;;;;;;;9.60;5.40;;;;;;;22.92;72.21;99110.42;104939;1262;74618;-33
2023/09/25 06:49:17;;;;;;;10.80;5.10;;;;;;;22.95;72.03;99109.12;104879;1263;65122;-32
2023/09/25 06:51:44;;;;;;;13.90;5.20;;;;;;;22.98;72.18;99115.06;105251;1257;73015;-33
2023/09/25 06:54:12;;;;;;;12.20;5.70;;;;;;;23.01;72.03;99110.92;104951;1262;61279;-33
2023/09/25 06:56:40;;;;;;;10.80;5.40;;;;;;;23.03;72.05;99118.63;105122;1260;61212;-33
2023/09/25 06:59:08;;;;;;;10.10;5.60;;;;;;;23.04;71.73;99123.27;105077;1260;75615;-34
2023/09/25 07:01:35;;;;;;;9.00;5.50;;;;;;;23.03;71.78;99123.62;104997;1262;66398;-32
2023/09/25 07:04:03;;;;;;;11.70;5.50;;;;;;;23.03;71.64;99125.27;105010;1261;73132;-33
2023/09/25 07:06:33;;;;;;;12.60;5.90;;;;;;;23.04;71.63;99127.16;105043;1261;61384;-34
2023/09/25 07:09:01;;;;;;;12.10;5.50;;;;;;;23.04;71.66;99126.24;105157;1258;61310;-34
2023/09/25 07:11:29;;;;;;;11.20;5.70;;;;;;;23.05;71.60;99128.84;105047;1262;75504;-35
2023/09/25 07:14:01;;;;;;;7.80;5.10;;;;;;;23.05;71.51;99130.89;105176;1260;67120;-32
2023/09/25 07:16:31;;;;;;;8.30;5.70;;;;;;;23.06;71.60;99139.21;105039;1262;72640;-33
2023/09/25 07:24:44;;;;;;;9.90;4.90;;;;;;;23.11;71.55;99139.50;104885;1261;60265;-33
2023/09/25 07:27:11;;;;;;;10.50;5.10;;;;;;;23.14;71.46;99131.91;104860;1261;74581;-32
2023/09/25 07:29:43;;;;;;;8.70;5.50;;;;;;;23.15;71.27;99132.98;105087;1262;68224;-34
2023/09/25 07:32:11;;;;;;;11.40;5.50;;;;;;;23.18;71.28;99132.65;108923;1257;72343;-33
2023/09/25 07:34:42;;;;;;;7.60;5.60;;;;;;;23.22;71.13;99131.53;104974;1260;61310;-33
2023/09/25 07:37:12;;;;;;;11.10;5.50;;;;;;;23.26;70.92;99137.13;104910;1261;61424;-33
2023/09/25 07:39:43;;;;;;;9.10;5.50;;;;;;;23.29;70.73;99135.56;105231;1257;74011;-33
2023/09/25 07:42:12;;;;;;;9.40;5.70;;;;;;;23.32;70.48;99142.85;105042;1264;66326;-34
2023/09/25 07:44:40;;;;;;;8.80;5.20;;;;;;;23.34;70.43;99144.08;105071;1260;72459;-34
2023/09/25 07:47:12;;;;;;;9.90;5.70;;;;;;;23.35;70.50;99146.23;104990;1263;61368;-33
2023/09/25 07:49:46;;;;;;;8.10;5.10;;;;;;;23.36;70.21;99151.34;105040;1261;61239;-36
2023/09/25 07:52:16;;;;;;;8.80;4.80;;;;;;;23.36;70.58;99158.77;105425;1263;74676;-35
2023/09/25 07:54:51;;;;;;;7.00;4.90;;;;;;;23.37;70.30;99158.62;104942;1262;65090;-35
2023/09/25 07:57:19;;;;;;;7.70;4.40;;;;;;;23.37;70.42;99159.79;105294;1260;72637;-34
2023/09/25 07:59:48;;;;;;;8.20;4.90;;;;;;;23.37;70.15;99161.20;105173;1262;61491;-35
2023/09/25 08:02:21;;;;;;;9.90;4.70;;;;;;;23.36;70.09;99164.39;104912;1261;61273;-35
2023/09/25 08:04:48;;;;;;;7.40;4.70;;;;;;;23.37;70.28;99164.56;105018;1261;74606;-33
2023/09/25 08:07:18;;;;;;;8.00;5.60;;;;;;;23.37;70.16;99166.44;104996;1264;67598;-34
2023/09/25 08:09:46;;;;;;;7.80;4.80;;;;;;;23.38;70.18;99166.69;105111;1264;73066;-35
2023/09/25 08:12:14;;;;;;;8.00;5.10;;;;;;;23.36;70.23;99166.48;104974;1261;61273;-34
2023/09/25 08:14:42;;;;;;;12.90;5.80;;;;;;;23.35;70.12;99169.81;105009;1259;61187;-34
2023/09/25 08:17:09;;;;;;;9.50;6.10;;;;;;;23.33;70.34;99171.62;104845;1263;75714;-36
2023/09/25 08:19:42;;;;;;;12.80;6.30;;;;;;;23.33;70.36;99170.97;104845;1264;67265;-33
2023/09/25 08:22:10;;;;;;;14.20;6.90;;;;;;;23.34;71.18;99173.45;105193;1260;73551;-40
2023/09/25 08:24:37;;;;;;;12.40;7.00;;;;;;;23.37;71.18;99180.27;104968;1262;61106;-37
2023/09/25 08:27:05;;;;;;;14.50;7.00;;;;;;;23.38;71.31;99179.04;104977;1260;61503;-38
2023/09/25 08:29:32;;;;;;;15.90;7.80;;;;;;;23.39;71.56;99178.60;104914;1261;74838;-38
2023/09/25 08:31:59;;;;;;;14.40;7.10;;;;;;;23.40;71.30;99180.03;104882;1262;67161;-39
2023/09/25 08:34:27;;;;;;;12.10;7.30;;;;;;;23.40;71.39;99179.52;105050;1260;72457;-40
2023/09/25 08:36:54;;;;;;;9.90;6.30;;;;;;;23.41;71.29;99176.34;104849;1264;61245;-42
2023/09/25 08:39:22;;;;;;;29.90;7.20;;;;;;;23.42;71.21;99175.59;105145;1261;61279;-38
2023/09/25 08:41:49;;;;;;;21.80;7.10;;;;;;;23.43;71.12;99175.06;104962;1262;75280;-39
2023/09/25 08:44:17;;;;;;;18.20;6.80;;;;;;;23.42;71.23;99173.69;104734;1264;66703;-42
2023/09/25 08:46:44;;;;;;;26.50;7.60;;;;;;;23.42;71.16;99174.79;104414;1260;73678;-42
2023/09/25 08:49:12;;;;;;;33.50;7.50;;;;;;;23.42;71.16;99175.17;105200;1262;61247;-42
2023/09/25 08:51:39;;;;;;;34.70;7.20;;;;;;;23.41;71.43;99170.23;104672;1260;61321;-42
2023/09/25 08:54:07;;;;;;;22.20;6.40;;;;;;;23.40;71.44;99169.29;104854;1261;74592;-41
2023/09/25 08:56:34;;;;;;;23.10;6.50;;;;;;;23.40;71.42;99171.13;104905;1261;66660;-42
2023/09/25 08:59:08;;;;;;;15.00;6.80;;;;;;;23.37;71.45;99169.55;104725;1261;72693;-42
2023/09/25 09:01:37;;;;;;;21.40;7.00;;;;;;;23.37;71.68;99171.45;104514;1264;203984;-41
2023/09/25 09:04:07;;;;;;;22.30;7.40;;;;;;;23.36;71.82;99172.13;104932;1259;61391;-41
2023/09/25 09:06:34;;;;;;;18.60;6.70;;;;;;;23.35;71.80;99176.45;104774;1262;75289;-42
2023/09/25 09:09:02;;;;;;;24.30;6.90;;;;;;;23.34;71.79;99176.25;105402;1262;66846;-42
2023/09/25 09:11:29;;;;;;;14.00;5.80;;;;;;;23.32;71.72;99181.50;104876;1261;73296;-42
2023/09/25 09:14:00;;;;;;;20.40;5.80;;;;;;;23.32;71.91;99177.60;105018;1261;61272;-43
2023/09/25 09:16:28;;;;;;;11.00;6.00;;;;;;;23.33;71.84;99179.09;104839;1259;61931;-42
2023/09/25 09:19:06;;;;;;;17.30;6.00;;;;;;;23.33;71.82;99178.17;104893;1263;75586;-42
2023/09/25 09:21:33;;;;;;;13.70;6.10;;;;;;;23.35;71.75;99176.92;104887;1261;65368;-42
2023/09/25 09:24:01;;;;;;;12.70;6.10;;;;;;;23.37;71.88;99181.69;105179;1261;73732;-42
2023/09/25 09:26:30;;;;;;;13.10;6.50;;;;;;;23.39;71.91;99178.45;105178;1259;61392;-42
2023/09/25 09:28:57;;;;;;;11.00;6.20;;;;;;;23.40;71.85;99179.52;104953;1259;61271;-41
2023/09/25 09:31:25;;;;;;;15.10;6.40;;;;;;;23.42;71.66;99176.49;104813;1263;75592;-41
2023/09/25 09:33:55;;;;;;;12.80;6.30;;;;;;;23.43;71.79;99179.66;104922;1262;66664;-43
2023/09/25 09:36:23;;;;;;;9.50;6.10;;;;;;;23.43;71.91;99178.67;104899;1257;72859;-39
2023/09/25 09:38:53;;;;;;;11.80;6.10;;;;;;;23.44;72.04;99176.33;105085;1260;61387;-40
2023/09/25 09:41:21;;;;;;;13.80;6.30;;;;;;;23.44;71.93;99179.25;105434;1258;63358;-41
2023/09/25 09:43:49;;;;;;;11.00;6.40;;;;;;;23.45;71.69;99171.85;105136;1260;75521;-42
2023/09/25 09:46:16;;;;;;;13.00;6.10;;;;;;;23.46;71.90;99174.15;104879;1261;66235;-42
2023/09/25 09:48:44;;;;;;;18.70;6.40;;;;;;;23.47;71.94;99173.13;108729;1257;73478;-39
2023/09/25 09:51:12;;;;;;;13.40;6.50;;;;;;;23.48;71.98;99172.77;108787;1258;60300;-42
2023/09/25 09:53:40;;;;;;;18.20;6.10;;;;;;;23.49;72.08;99176.24;108836;1259;60110;-39
2023/09/25 09:56:08;;;;;;;17.80;6.70;;;;;;;23.50;72.02;99175.88;108884;1258;74279;-41
2023/09/25 09:58:37;;;;;;;14.40;6.80;;;;;;;23.51;72.02;99176.62;108961;1257;65301;-34
2023/09/25 10:01:04;;;;;;;9.30;5.30;;;;;;;23.54;72.13;99177.41;105083;1261;72555;-33
2023/09/25 10:03:32;;;;;;;9.80;5.40;;;;;;;23.59;71.96;99180.36;105086;1265;61322;-31
2023/09/25 10:06:00;;;;;;;12.70;5.80;;;;;;;23.62;71.99;99182.65;105094;1257;61286;-32
2023/09/25 10:08:28;;;;;;;11.00;6.30;;;;;;;23.66;71.86;99178.09;104895;1262;75604;-34
2023/09/25 10:11:15;;;;;;;10.60;6.20;;;;;;;23.71;71.88;99176.55;104798;1267;66234;-34
2023/09/25 10:13:42;;;;;;;12.20;6.90;;;;;;;23.75;71.78;99178.16;105069;1259;74165;-34
2023/09/25 10:16:12;;;;;;;12.80;6.50;;;;;;;23.77;71.47;99175.89;105023;1262;61421;-34
2023/09/25 10:18:41;;;;;;;11.00;6.60;;;;;;;23.79;71.17;99179.08;105264;1260;61349;-34
2023/09/25 10:21:14;;;;;;;9.60;6.10;;;;;;;23.81;70.95;99179.75;105300;1259;74473;-33
2023/09/25 10:23:45;;;;;;;14.60;6.20;;;;;;;23.82;70.85;99179.16;105273;1262;66671;-32
2023/09/25 10:26:33;;;;;;;14.40;6.30;;;;;;;23.83;70.64;99176.66;105173;1259;72553;-33
2023/09/25 10:29:14;;;;;;;8.80;6.10;;;;;;;23.85;70.61;99177.12;105183;1262;61352;-31
2023/09/25 10:31:45;;;;;;;11.30;6.20;;;;;;;23.85;70.26;99181.20;104977;1260;61391;-33
2023/09/25 10:34:14;;;;;;;14.20;6.20;;;;;;;23.87;70.54;99183.73;104777;1261;75066;-32
2023/09/25 10:36:42;;;;;;;11.00;5.40;;;;;;;23.88;70.51;99185.20;105079;1261;67368;-31
2023/09/25 10:39:14;;;;;;;6.60;4.70;;;;;;;23.90;70.53;99185.30;104846;1259;71102;-32
2023/09/25 10:41:42;;;;;;;10.50;6.20;;;;;;;23.92;70.62;99184.65;104982;1262;61280;-33
2023/09/25 10:44:10;;;;;;;7.90;5.40;;;;;;;23.94;70.59;99184.39;105038;1260;62293;-30
2023/09/25 10:46:38;;;;;;;7.10;5.10;;;;;;;23.95;70.54;99183.18;104622;1260;75023;-32
2023/09/25 10:49:06;;;;;;;9.70;5.40;;;;;;;23.96;70.63;99176.88;105141;1260;66924;-34
2023/09/25 10:51:35;;;;;;;7.20;4.90;;;;;;;23.97;70.67;99175.03;104951;1260;73406;-33
2023/09/25 10:54:03;;;;;;;7.30;4.80;;;;;;;23.98;70.76;99175.92;104937;1262;61264;-34
2023/09/25 10:56:32;;;;;;;9.20;5.30;;;;;;;24.00;70.84;99176.44;104743;1260;61228;-34
2023/09/25 10:59:00;;;;;;;8.10;4.60;;;;;;;24.01;70.59;99177.02;105389;1260;74601;-33
2023/09/25 11:01:31;;;;;;;6.10;4.90;;;;;;;24.02;70.51;99177.61;105145;1261;67205;-33
2023/09/25 11:03:59;;;;;;;11.30;4.60;;;;;;;24.03;70.60;99172.44;105181;1260;72771;-35
2023/09/25 11:06:28;;;;;;;7.50;4.60;;;;;;;24.04;70.48;99171.55;105357;1259;61358;-33
2023/09/25 11:09:06;;;;;;;7.20;4.80;;;;;;;24.05;70.41;99166.67;105202;1264;60332;-34
2023/09/25 11:11:34;;;;;;;5.40;4.60;;;;;;;24.07;70.18;99167.10;105200;1258;74432;-36
2023/09/25 11:14:02;;;;;;;5.90;4.80;;;;;;;24.08;69.96;99164.34;104915;1262;67634;-32
2023/09/25 11:16:30;;;;;;;5.40;4.30;;;;;;;24.08;69.81;99159.55;105112;1258;73215;-33
2023/09/25 11:19:11;;;;;;;6.70;4.80;;;;;;;24.08;69.83;99157.70;105193;1262;61350;-33
2023/09/25 11:21:39;;;;;;;6.30;4.20;;;;;;;24.08;69.71;99162.33;105118;1264;61137;-31
2023/09/25 11:24:10;;;;;;;6.60;4.70;;;;;;;24.08;69.48;99165.45;105436;1260;73560;-33
2023/09/25 11:26:38;;;;;;;5.50;4.60;;;;;;;24.08;69.35;99169.28;105042;1259;65505;-33
2023/09/25 11:29:09;;;;;;;5.60;4.50;;;;;;;24.09;69.42;99170.30;105067;1262;73507;-32
2023/09/25 11:31:37;;;;;;;5.50;4.30;;;;;;;24.08;69.31;99166.93;105391;1261;61282;-33
2023/09/25 11:34:25;;;;;;;6.90;5.00;;;;;;;24.08;68.99;99166.45;104739;1259;61260;-33
2023/09/25 11:36:53;;;;;;;6.70;5.20;;;;;;;24.08;69.18;99165.90;104808;1261;74985;-33